עמוד ראשי
METAR-TAF:

METAR-TAF

שדות תעופה :

San Andrés, קולומביה

קו רוחב: 12-35N, קו אורך: 081-43W, גובה: 1מטר

תצפית מזג אוויר נוכחית

הדו"ח נערך לפני 46דקות, בשעה 16:00 UTC
רוח 10קשר מכיוון מזרח/צפון-מזרח, משתנה בין צפון-מזרח ו דרום-מזרח
טמפרטורת 31 צלסיוס
לחות 79%
לחץ 1014 hPa
ראות 10 קילומטר או יותר
עננים פזורים בגובה 1700רגל

METAR: SKSP 241600Z 07010KT 050V140 9999 SCT017 31/27 Q1014

זמן: 11:46 (16:46 UTC)

תחזית

הדו"ח נערך לפני 6 שעות ו 16דקות, בשעה 10:30 UTC
תחזית בתוקף מ 24 ב 12 UTC עד 25 ב 12 UTC
רוח 12קשר מכיוון מזרח/צפון-מזרח
ראות 10 קילומטר או יותר
מעט עננים בגובה 1800רגל

TAF: SKSP 241030Z 2412/2512 06012KT 9999 FEW018 TX31/2419Z TN26/2510Z

תצפיות ותחזיות מזג אוויר לגבי יותר מ- 4,000 שדות תעופה ברחבי העולם. דוחות METAR ו- TAF.

התחנות הזמינות מסומנות בנקודות צהובות ואדומות על גבי המפה.

העבר את העכבר לנקודה הצבעונית על מנת לראות את שם התחנה.

לאחר מכן, לחץ כדי לראות את תוכן ואת תחזיות מזג האוויר.

כדי לשנות את המפה: לחץ על הכפתורים הירוקים עם הפלוס השחור כדי להתקרב; על הכפתור הירוק עם המקף כדי להתרחק; או בחיצים הירוקים למפות סמוכות.


METAR-TAF: